Forside
METAR-TAF:

METAR-TAF

Lufthavne :

Greater Kankakee Airport

Kankakee, Illinois, USA

Breddekreds: 41-04-17N, længdekreds: 087-50-47W, højde: 192 m

Aktuelle vejr

Denne rapport blev lavet for 28 minutter siden, kl. 20:55 UTC
Vind 9 kt fra vest
Temperatur 0°C
Fugtighed 86%
Tryk 1013 hPa
Sigt: 16.1 km
Overskyet i en højde af 1200 ft

METAR: KIKK 262055Z AUTO 28009KT 10SM OVC012 00/M02 A2992 RMK AO2 T00001023

Tid: 15:23 (21:23 UTC)


TAF: fraværende

Vejrobservationer og prognoser fra mere end 4000 lufthavne (METAR og TAF).

De gule og røde prikker repræsenterer de meteorologiske stationer.

Flyt musen over at se navnet på stationen.

Så klik over at se vejr observationer og prognoser.

At skifte det kort: Klik på de grønne knapper med et sort kors for at zoome ind; på den grønne knap med en bindestreg for at zoome ud; eller på de grønne pile for tilstødende kort.


METAR-TAF: